< < Back
Terminal Aerodrome Forecast


Current Version              Previous Versions:   1  2  3  4  5  6  7  8  9  

Terminal Aerodrome Forecast

639
FTUS44 KBMX 051130
TAFANB
TAF
KANB 051130Z 0512/0612 07003KT 5SM BR SKC
     FM051400 10007KT P6SM SCT070
     FM060000 07002KT P6SM SKC=



Latest METAR

792
SAUS70 KWBC 051756
MTRANB
METAR KANB 051753Z AUTO 08008KT 10SM FEW055 27/13 A3027 RMK AO2 SLP243
T02670128 10272 20156 58016


USA.gov is the U.S. government's official web portal to all federal, state and local government web resources and services.